Time;durP1;ratioP1;P1;durP2;ratioP2;P2;SDS_P1;SDS_P2;PMS_P1;PMS_P2;Temp;Humidity;BMP_temperature;BMP_pressure;BME280_temperature;BME280_humidity;BME280_pressure;Samples;Min_cycle;Max_cycle;Signal;HPM_P1;HPM_P2
2022/01/16 00:01:37;;;;;;;39.90;19.57;;;;;;;3.27;65.80;97239.25;5072381;28;20221;-70
2022/01/16 00:04:06;;;;;;;40.73;19.00;;;;;;;3.20;66.09;97250.03;5066679;28;20182;-71
2022/01/16 00:06:42;;;;;;;48.33;19.63;;;;;;;3.18;66.22;97279.56;5068868;28;20453;-71
2022/01/16 00:09:08;;;;;;;79.20;19.53;;;;;;;3.17;66.20;97278.72;5072687;28;20448;-71
2022/01/16 00:11:37;;;;;;;45.60;19.20;;;;;;;3.18;66.10;97275.19;5067616;28;20435;-70
2022/01/16 00:14:06;;;;;;;42.37;18.47;;;;;;;3.20;66.36;97296.66;5062096;28;20713;-71
2022/01/16 00:16:34;;;;;;;50.30;19.30;;;;;;;3.21;66.14;97280.19;5072135;28;20490;-70
2022/01/16 00:19:00;;;;;;;60.37;17.63;;;;;;;3.21;66.05;97285.34;5046347;28;21036;-70
2022/01/16 00:21:31;;;;;;;44.43;18.53;;;;;;;3.01;66.50;97289.28;5073510;28;20425;-69
2022/01/16 00:23:57;;;;;;;60.17;19.10;;;;;;;2.83;66.75;97286.16;5070581;28;20428;-71
2022/01/16 00:26:23;;;;;;;56.80;17.47;;;;;;;2.76;67.11;97274.56;5072670;28;20440;-69
2022/01/16 00:28:50;;;;;;;50.37;19.07;;;;;;;2.71;67.60;97271.44;5072886;28;20773;-71
2022/01/16 00:31:17;;;;;;;37.97;18.40;;;;;;;2.88;67.11;97288.44;5072616;28;20468;-72
2022/01/16 00:33:44;;;;;;;73.13;19.73;;;;;;;2.95;66.94;97270.75;5072201;28;20431;-69
2022/01/16 00:36:11;;;;;;;64.30;19.30;;;;;;;2.76;67.34;97259.03;5068671;28;20539;-72
2022/01/16 00:38:43;;;;;;;47.70;18.50;;;;;;;2.85;67.63;97284.31;5066472;28;20416;-71
2022/01/16 00:41:13;;;;;;;44.87;19.30;;;;;;;3.01;67.27;97283.28;5072720;28;20431;-72
2022/01/16 00:43:39;;;;;;;40.60;19.83;;;;;;;2.95;67.13;97288.88;5037401;28;20438;-70
2022/01/16 00:46:05;;;;;;;57.80;20.60;;;;;;;3.03;66.97;97276.22;5063127;28;20432;-71
2022/01/16 00:48:33;;;;;;;52.67;21.37;;;;;;;3.01;67.09;97284.09;5061159;28;20413;-71
2022/01/16 00:50:59;;;;;;;96.77;20.47;;;;;;;2.79;67.29;97284.69;5067990;28;20182;-71
2022/01/16 00:53:25;;;;;;;69.17;19.97;;;;;;;2.80;67.57;97282.97;5065616;28;21013;-69
2022/01/16 00:55:53;;;;;;;47.97;19.53;;;;;;;2.98;67.64;97294.66;5078347;28;20425;-70
2022/01/16 00:58:21;;;;;;;62.27;21.23;;;;;;;2.81;67.28;97285.44;5072865;28;20186;-70
2022/01/16 01:00:47;;;;;;;76.17;21.63;;;;;;;1.96;69.84;97312.41;5072938;28;20460;-69
2022/01/16 01:03:14;;;;;;;71.97;21.30;;;;;;;2.02;70.62;97307.78;5065660;28;20425;-69
2022/01/16 01:05:39;;;;;;;144.83;22.70;;;;;;;1.88;70.47;97319.81;5069274;28;20531;-72
2022/01/16 01:08:06;;;;;;;94.87;19.93;;;;;;;1.81;71.10;97318.50;5070777;28;20450;-70
2022/01/16 01:10:35;;;;;;;93.53;20.47;;;;;;;1.60;71.26;97306.00;5071584;28;20189;-70
2022/01/16 01:13:23;;;;;;;64.47;20.03;;;;;;;1.93;70.72;97306.59;5063547;28;20441;-70
2022/01/16 01:15:57;;;;;;;73.43;19.93;;;;;;;1.98;70.31;97318.31;5070669;28;20429;-72
2022/01/16 01:18:23;;;;;;;70.70;20.77;;;;;;;2.03;69.98;97306.81;5079564;28;20424;-73
2022/01/16 01:20:50;;;;;;;56.47;19.10;;;;;;;2.30;69.44;97255.94;5076802;28;20444;-72
2022/01/16 01:23:16;;;;;;;54.00;18.33;;;;;;;2.50;68.82;97194.31;5078968;28;20189;-69
2022/01/16 01:25:42;;;;;;;74.27;20.93;;;;;;;2.54;68.62;97198.34;5081577;28;20420;-69
2022/01/16 01:28:09;;;;;;;153.40;22.90;;;;;;;2.13;69.13;97217.44;5070312;28;20199;-71
2022/01/16 01:30:35;;;;;;;161.10;23.70;;;;;;;1.91;69.87;97216.19;5082753;28;20971;-70
2022/01/16 01:33:00;;;;;;;88.13;21.73;;;;;;;1.28;72.29;97222.72;5071488;28;20424;-70
2022/01/16 01:35:28;;;;;;;114.97;24.60;;;;;;;1.04;73.64;97252.50;5068346;28;20417;-71
2022/01/16 01:37:54;;;;;;;133.20;22.97;;;;;;;1.09;72.92;97267.69;5069753;28;20838;-71
2022/01/16 01:40:25;;;;;;;103.37;21.30;;;;;;;1.46;72.30;97282.75;5070338;28;20456;-73
2022/01/16 01:51:21;;;;;;;61.93;23.20;;;;;;;1.97;70.50;97306.31;5070667;28;20433;-71
2022/01/16 01:53:47;;;;;;;87.20;25.10;;;;;;;1.75;70.89;97329.25;5069410;28;20501;-70
2022/01/16 01:56:17;;;;;;;57.30;23.30;;;;;;;1.96;70.43;97307.22;5069190;28;20544;-72
2022/01/16 01:58:43;;;;;;;67.57;23.23;;;;;;;2.11;69.95;97295.06;5070642;28;20448;-72
2022/01/16 02:01:09;;;;;;;140.27;23.87;;;;;;;2.04;69.62;97308.47;5069876;28;20477;-72
2022/01/16 02:03:42;;;;;;;77.87;24.40;;;;;;;2.32;69.40;97314.50;5064271;28;20440;-71
2022/01/16 02:06:22;;;;;;;55.87;24.73;;;;;;;2.44;69.10;97321.47;5061037;28;20195;-71
2022/01/16 02:08:51;;;;;;;50.23;23.40;;;;;;;2.45;68.79;97324.00;5062088;28;20413;-70
2022/01/16 02:11:18;;;;;;;49.10;23.00;;;;;;;2.55;68.80;97337.13;5069373;28;20451;-70
2022/01/16 02:36:26;;;;;;;105.60;23.13;;;;;;;1.79;71.09;97325.53;5009519;28;20820;-71
2022/01/16 02:38:59;;;;;;;143.43;22.37;;;;;;;1.60;71.32;97331.81;5007183;28;20455;-69
2022/01/16 02:41:25;;;;;;;120.07;23.37;;;;;;;0.85;72.97;97324.19;5012252;28;20427;-69
2022/01/16 02:43:51;;;;;;;52.00;20.27;;;;;;;1.26;72.26;97309.78;5012003;28;20489;-73
2022/01/16 02:48:51;;;;;;;58.23;23.10;;;;;;;1.86;70.95;97294.97;5011760;28;20462;-70
2022/01/16 02:51:18;;;;;;;88.70;23.17;;;;;;;1.37;71.19;97284.13;5010696;28;20200;-70
2022/01/16 02:53:45;;;;;;;54.70;22.57;;;;;;;1.37;72.02;97289.28;5011750;28;20458;-69
2022/01/16 02:56:12;;;;;;;51.07;22.30;;;;;;;1.72;70.80;97272.56;5011612;28;20515;-72
2022/01/16 02:58:37;;;;;;;70.30;23.10;;;;;;;1.96;69.87;97276.19;5011276;28;21030;-71
2022/01/16 03:01:03;;;;;;;67.37;22.60;;;;;;;1.78;69.33;97267.84;5002607;28;20443;-70
2022/01/16 03:03:29;;;;;;;51.63;22.90;;;;;;;1.95;69.07;97269.38;5013208;28;20696;-72
2022/01/16 03:05:54;;;;;;;46.80;22.57;;;;;;;1.89;68.90;97277.50;5065810;28;20692;-72
2022/01/16 03:08:20;;;;;;;46.10;22.20;;;;;;;2.05;68.90;97273.94;5073407;28;20221;-72
2022/01/16 03:13:17;;;;;;;52.70;23.60;;;;;;;1.83;68.40;97268.38;5065660;28;20321;-71
2022/01/16 03:15:43;;;;;;;44.07;21.73;;;;;;;1.96;68.22;97271.03;5073099;28;20526;-71
2022/01/16 03:23:23;;;;;;;48.80;22.27;;;;;;;2.04;67.76;97256.78;5067924;28;20436;-71
2022/01/16 03:25:49;;;;;;;47.07;22.90;;;;;;;1.91;67.66;97260.13;5072897;28;20937;-72
2022/01/16 03:28:15;;;;;;;38.63;20.07;;;;;;;2.00;67.88;97261.31;5072364;28;20723;-71
2022/01/16 03:30:41;;;;;;;47.87;22.63;;;;;;;1.99;67.64;97267.41;5070221;28;20512;-71
2022/01/16 03:33:07;;;;;;;44.13;21.87;;;;;;;1.82;68.00;97278.81;5071449;28;20971;-70
2022/01/16 03:35:33;;;;;;;43.60;21.80;;;;;;;1.90;67.68;97265.41;5069751;28;20213;-70
2022/01/16 03:37:59;;;;;;;42.87;21.87;;;;;;;1.95;67.25;97266.78;5072747;28;20294;-69
2022/01/16 03:40:25;;;;;;;54.57;20.60;;;;;;;1.85;66.72;97263.13;5072709;28;20966;-71
2022/01/16 03:42:51;;;;;;;39.50;20.40;;;;;;;2.01;66.63;97259.56;5071392;28;20182;-73
2022/01/16 03:45:16;;;;;;;47.20;23.23;;;;;;;2.01;66.62;97255.22;5062809;28;20663;-72
2022/01/16 03:47:42;;;;;;;60.90;22.17;;;;;;;1.85;66.48;97257.94;5071960;28;20225;-72
2022/01/16 03:50:08;;;;;;;37.60;20.43;;;;;;;1.94;66.37;97259.94;5070541;28;20240;-71
2022/01/16 03:52:34;;;;;;;43.20;20.60;;;;;;;1.93;65.97;97249.72;5071398;28;20231;-72
2022/01/16 03:55:00;;;;;;;46.17;20.27;;;;;;;1.97;66.10;97257.19;5064191;28;20436;-72
2022/01/16 03:57:25;;;;;;;43.80;20.10;;;;;;;1.98;65.94;97271.75;5072439;28;20201;-72
2022/01/16 03:59:51;;;;;;;40.10;20.53;;;;;;;1.87;65.65;97270.78;5071814;28;20296;-71
2022/01/16 04:02:17;;;;;;;42.60;20.67;;;;;;;1.81;66.21;97275.41;5064382;28;20194;-70
2022/01/16 04:04:42;;;;;;;39.53;21.63;;;;;;;1.90;65.88;97273.97;5070115;28;20202;-71
2022/01/16 04:07:11;;;;;;;40.00;20.40;;;;;;;1.97;65.71;97277.88;5069242;28;20198;-71
2022/01/16 04:09:37;;;;;;;40.43;20.50;;;;;;;1.85;65.43;97278.63;5071869;28;20278;-73
2022/01/16 04:12:03;;;;;;;43.40;21.17;;;;;;;1.80;66.08;97278.06;5070955;28;20432;-71
2022/01/16 04:17:14;;;;;;;43.87;22.30;;;;;;;1.74;66.10;97281.88;5063715;28;20476;-72
2022/01/16 04:19:40;;;;;;;45.27;22.87;;;;;;;1.73;65.75;97282.78;5063219;28;20822;-72
2022/01/16 04:22:06;;;;;;;39.20;21.17;;;;;;;1.89;65.66;97284.44;5064971;28;20417;-71
2022/01/16 04:24:33;;;;;;;39.90;21.40;;;;;;;1.75;65.95;97273.19;5052206;28;20325;-71
2022/01/16 04:26:59;;;;;;;40.57;20.87;;;;;;;1.62;65.68;97267.97;5050639;28;20199;-72
2022/01/16 04:29:25;;;;;;;41.33;21.80;;;;;;;1.61;65.42;97276.66;5051232;28;20874;-72
2022/01/16 04:31:50;;;;;;;40.87;23.00;;;;;;;1.20;67.05;97254.97;5050359;28;20179;-71
2022/01/16 04:34:16;;;;;;;36.87;20.00;;;;;;;1.50;66.73;97260.97;5051940;28;20233;-71
2022/01/16 04:36:42;;;;;;;41.57;20.97;;;;;;;1.59;66.52;97264.72;5051282;28;20252;-71
2022/01/16 04:39:13;;;;;;;40.93;20.40;;;;;;;1.68;66.23;97267.59;5038303;28;20464;-71
2022/01/16 04:44:23;;;;;;;40.23;21.00;;;;;;;1.81;65.45;97256.47;5050822;28;20952;-72
2022/01/16 04:46:48;;;;;;;38.10;20.20;;;;;;;1.83;65.25;97254.63;5049555;28;20496;-71
2022/01/16 04:49:14;;;;;;;38.57;21.13;;;;;;;1.78;65.35;97264.41;5052994;28;20183;-72
2022/01/16 04:51:39;;;;;;;43.17;21.40;;;;;;;1.79;65.61;97260.91;5052239;28;20248;-72
2022/01/16 04:54:05;;;;;;;38.53;20.23;;;;;;;1.67;65.23;97260.75;5051308;28;20190;-71
2022/01/16 04:56:31;;;;;;;39.37;20.40;;;;;;;1.60;65.11;97262.06;5050207;28;20248;-70
2022/01/16 04:58:56;;;;;;;39.47;20.83;;;;;;;1.47;65.65;97266.31;5049361;28;20202;-71
2022/01/16 05:01:22;;;;;;;41.93;21.77;;;;;;;1.36;66.13;97266.97;5047553;28;20176;-70
2022/01/16 05:03:48;;;;;;;45.43;21.73;;;;;;;0.83;67.22;97266.69;5044241;28;20533;-72
2022/01/16 05:06:14;;;;;;;42.70;22.80;;;;;;;0.33;69.58;97278.97;5051022;28;20463;-71
2022/01/16 05:08:40;;;;;;;41.30;22.23;;;;;;;0.37;69.30;97262.41;5057072;28;20201;-71
2022/01/16 05:11:07;;;;;;;44.50;21.20;;;;;;;0.71;68.26;97271.63;5053802;28;20241;-71
2022/01/16 05:18:51;;;;;;;54.23;22.20;;;;;;;0.50;69.05;97262.56;5051455;28;20454;-72
2022/01/16 05:21:17;;;;;;;42.13;22.47;;;;;;;0.41;69.03;97264.72;5050990;28;21061;-70
2022/01/16 05:23:43;;;;;;;41.30;22.00;;;;;;;0.52;68.85;97261.56;5051231;28;20202;-71
2022/01/16 05:26:10;;;;;;;41.43;22.37;;;;;;;0.57;68.39;97266.44;5059352;28;20183;-72
2022/01/16 05:28:35;;;;;;;40.40;21.63;;;;;;;0.53;68.81;97267.53;5050021;28;20463;-71
2022/01/16 05:31:01;;;;;;;48.33;24.23;;;;;;;0.62;68.37;97267.00;5049866;28;20420;-70
2022/01/16 05:33:27;;;;;;;41.97;21.90;;;;;;;0.21;69.42;97267.63;5050645;28;20179;-71
2022/01/16 05:35:52;;;;;;;45.13;23.63;;;;;;;-0.07;69.52;97266.56;5049301;28;20185;-71
2022/01/16 05:38:18;;;;;;;49.43;23.33;;;;;;;-0.17;70.45;97267.06;5050180;28;20677;-70
2022/01/16 05:40:44;;;;;;;45.10;23.00;;;;;;;-0.11;69.44;97267.63;5049511;28;20629;-71
2022/01/16 05:43:10;;;;;;;45.07;23.53;;;;;;;-0.15;69.79;97272.13;5049938;28;20183;-70
2022/01/16 05:45:36;;;;;;;49.50;24.60;;;;;;;0.06;69.66;97280.44;5056477;28;20435;-70
2022/01/16 05:48:02;;;;;;;47.57;24.57;;;;;;;0.04;69.45;97286.59;5059130;28;20559;-69
2022/01/16 05:50:28;;;;;;;48.60;25.27;;;;;;;-0.12;69.74;97286.59;5054231;28;20427;-71
2022/01/16 05:52:54;;;;;;;43.80;22.57;;;;;;;-0.03;69.56;97280.94;5054768;28;20190;-71
2022/01/16 05:55:19;;;;;;;46.70;22.83;;;;;;;-0.28;69.45;97284.03;5063059;28;20535;-71
2022/01/16 05:57:46;;;;;;;48.10;23.47;;;;;;;0.01;69.63;97285.00;5059812;28;20201;-71
2022/01/16 06:00:13;;;;;;;47.13;23.07;;;;;;;-0.05;69.27;97282.78;5055974;28;20464;-71
2022/01/16 06:02:39;;;;;;;43.37;23.77;;;;;;;0.01;68.57;97285.00;5047305;28;20432;-71
2022/01/16 06:05:06;;;;;;;47.50;26.90;;;;;;;-0.10;69.31;97292.50;5054683;28;20431;-72
2022/01/16 06:07:32;;;;;;;49.67;25.30;;;;;;;-0.27;69.49;97294.25;5054674;28;20437;-70
2022/01/16 06:09:57;;;;;;;43.00;23.63;;;;;;;-0.04;69.31;97292.19;5044930;28;20408;-70
2022/01/16 06:12:23;;;;;;;47.37;24.40;;;;;;;-0.09;69.02;97289.00;5054894;28;20186;-70
2022/01/16 06:14:48;;;;;;;42.20;23.40;;;;;;;-0.07;69.15;97294.91;5054855;28;20182;-72
2022/01/16 06:17:14;;;;;;;42.60;23.33;;;;;;;0.01;68.79;97291.91;5051469;28;20202;-71
2022/01/16 06:19:40;;;;;;;40.63;23.83;;;;;;;-0.03;68.66;97301.56;5053237;28;20279;-71
2022/01/16 06:22:06;;;;;;;48.13;23.97;;;;;;;0.27;68.01;97303.34;5058365;28;20429;-71
2022/01/16 06:24:31;;;;;;;46.73;24.47;;;;;;;0.26;68.18;97319.72;5054070;28;20175;-70
2022/01/16 06:26:57;;;;;;;45.27;24.80;;;;;;;0.23;67.73;97312.19;5062690;28;20205;-71
2022/01/16 06:29:24;;;;;;;42.37;23.37;;;;;;;0.52;67.80;97322.59;5052713;28;20186;-71
2022/01/16 06:31:49;;;;;;;38.67;22.53;;;;;;;0.62;66.89;97313.44;5054173;28;20533;-71
2022/01/16 06:34:15;;;;;;;39.27;23.33;;;;;;;0.68;66.73;97305.34;5053540;28;20508;-71
2022/01/16 06:36:41;;;;;;;47.00;23.03;;;;;;;0.67;66.63;97314.00;5051391;28;20194;-70
2022/01/16 06:39:08;;;;;;;38.73;22.90;;;;;;;0.52;66.95;97322.59;5071322;28;20312;-71
2022/01/16 06:41:34;;;;;;;44.27;22.80;;;;;;;0.48;67.19;97329.69;5074197;28;20482;-70
2022/01/16 06:44:00;;;;;;;36.20;22.70;;;;;;;0.63;66.67;97333.16;5066176;28;20457;-71
2022/01/16 06:46:27;;;;;;;36.67;22.47;;;;;;;0.77;66.44;97330.59;5074704;28;20489;-71
2022/01/16 06:48:53;;;;;;;34.30;20.40;;;;;;;0.82;66.14;97332.94;5073158;28;20417;-70
2022/01/16 06:51:19;;;;;;;38.73;20.90;;;;;;;0.93;66.47;97337.47;5073338;28;20516;-71
2022/01/16 06:53:49;;;;;;;36.00;21.87;;;;;;;0.83;65.82;97326.03;5073163;28;20171;-70
2022/01/16 06:56:16;;;;;;;38.90;22.30;;;;;;;0.96;65.57;97326.13;5074588;28;20432;-72
2022/01/16 06:58:42;;;;;;;43.30;24.37;;;;;;;0.95;65.49;97334.78;5074124;28;20765;-71
2022/01/16 07:01:08;;;;;;;37.20;20.17;;;;;;;0.91;65.23;97329.00;5073255;28;20477;-70
2022/01/16 07:03:34;;;;;;;38.03;21.60;;;;;;;0.91;65.03;97336.72;5067152;28;20511;-71
2022/01/16 07:06:00;;;;;;;35.50;20.27;;;;;;;0.89;64.84;97343.72;5070454;28;20185;-73
2022/01/16 07:08:26;;;;;;;30.70;19.40;;;;;;;0.94;65.26;97349.47;5065663;28;20192;-70
2022/01/16 07:10:59;;;;;;;35.80;20.80;;;;;;;0.98;64.42;97350.97;5073174;28;20790;-71
2022/01/16 07:13:26;;;;;;;32.13;20.00;;;;;;;0.97;64.33;97349.28;5056228;28;20940;-71
2022/01/16 07:15:52;;;;;;;38.93;20.37;;;;;;;0.90;64.19;97343.66;5073382;28;20424;-70
2022/01/16 07:18:18;;;;;;;31.50;18.50;;;;;;;0.99;64.43;97346.63;5073708;28;20447;-71
2022/01/16 07:20:44;;;;;;;35.90;20.43;;;;;;;1.00;64.07;97349.13;5055114;28;20448;-71
2022/01/16 07:23:11;;;;;;;28.23;18.10;;;;;;;0.98;64.44;97350.13;5069779;28;20978;-72
2022/01/16 07:25:37;;;;;;;32.70;19.00;;;;;;;0.91;64.53;97352.22;5072864;28;20420;-71
2022/01/16 07:28:03;;;;;;;34.17;19.50;;;;;;;0.99;64.08;97362.94;5072190;28;20591;-70
2022/01/16 07:30:29;;;;;;;30.77;17.87;;;;;;;1.07;63.90;97368.50;5071670;28;20174;-72
2022/01/16 07:32:54;;;;;;;29.17;19.33;;;;;;;1.14;64.02;97379.28;5065733;28;20971;-70
2022/01/16 07:35:20;;;;;;;31.73;19.50;;;;;;;1.12;64.14;97378.53;5072183;28;20425;-69
2022/01/16 07:37:47;;;;;;;31.30;18.10;;;;;;;0.96;63.94;97383.75;5062694;28;20733;-69
2022/01/16 07:40:13;;;;;;;34.70;19.93;;;;;;;1.07;63.45;97371.06;5072819;28;20206;-69
2022/01/16 07:42:39;;;;;;;33.20;19.70;;;;;;;0.99;63.76;97378.44;5071041;28;20428;-69
2022/01/16 07:45:05;;;;;;;36.93;21.43;;;;;;;0.98;64.23;97381.94;5071246;28;20417;-70
2022/01/16 07:47:31;;;;;;;34.33;19.97;;;;;;;0.90;64.25;97379.78;5070897;28;20285;-72
2022/01/16 07:49:56;;;;;;;42.50;21.97;;;;;;;0.89;64.30;97390.19;5072566;28;20409;-71
2022/01/16 07:52:22;;;;;;;42.77;22.90;;;;;;;0.83;64.94;97393.13;5073491;28;20181;-72
2022/01/16 07:54:47;;;;;;;37.57;22.30;;;;;;;0.94;64.27;97397.69;5071775;28;20190;-71
2022/01/16 07:57:13;;;;;;;42.80;22.90;;;;;;;0.90;64.55;97397.00;5064996;28;20199;-71
2022/01/16 07:59:39;;;;;;;44.43;24.37;;;;;;;0.73;65.01;97393.66;5072968;28;20243;-69
2022/01/16 08:02:04;;;;;;;40.50;22.03;;;;;;;0.83;64.84;97406.03;5055283;28;20543;-71
2022/01/16 08:04:30;;;;;;;42.80;22.87;;;;;;;0.95;64.62;97417.38;5064992;28;20174;-72
2022/01/16 08:06:56;;;;;;;34.00;20.20;;;;;;;0.51;65.67;97432.69;5063789;28;20207;-72
2022/01/16 08:09:21;;;;;;;43.63;23.97;;;;;;;0.77;65.89;97436.41;5071688;28;20181;-72
2022/01/16 08:11:47;;;;;;;41.57;22.50;;;;;;;1.04;64.99;97428.03;5067854;28;20570;-71
2022/01/16 08:14:12;;;;;;;37.30;20.73;;;;;;;1.00;65.36;97429.16;5070731;28;20181;-70
2022/01/16 08:16:38;;;;;;;45.80;23.73;;;;;;;0.85;66.07;97427.44;5066384;28;20623;-70
2022/01/16 08:19:04;;;;;;;42.33;23.00;;;;;;;0.81;65.83;97436.25;5070926;28;20205;-71
2022/01/16 08:21:29;;;;;;;36.43;21.27;;;;;;;0.65;66.52;97442.25;5071275;28;20691;-71
2022/01/16 08:23:55;;;;;;;37.23;20.93;;;;;;;0.88;66.27;97432.41;5072199;28;20185;-71
2022/01/16 08:26:20;;;;;;;37.40;21.20;;;;;;;1.09;65.71;97443.25;5061851;28;20208;-71
2022/01/16 08:28:46;;;;;;;39.00;22.77;;;;;;;0.97;66.22;97439.63;5072316;28;20624;-71
2022/01/16 08:31:11;;;;;;;36.57;21.80;;;;;;;1.23;65.72;97434.75;5070701;28;20174;-71
2022/01/16 08:33:38;;;;;;;38.30;21.80;;;;;;;1.34;65.50;97434.94;5072006;28;20174;-71
2022/01/16 08:36:04;;;;;;;31.90;19.17;;;;;;;1.04;65.64;97442.72;5070923;28;20574;-70
2022/01/16 08:38:30;;;;;;;32.57;20.73;;;;;;;1.04;65.50;97437.53;5058884;28;20431;-72
2022/01/16 08:40:55;;;;;;;33.47;20.43;;;;;;;1.23;65.35;97437.31;5041062;28;20525;-72
2022/01/16 08:43:21;;;;;;;36.43;20.90;;;;;;;1.23;65.58;97447.66;5067395;28;20421;-73
2022/01/16 08:45:47;;;;;;;34.33;20.03;;;;;;;1.13;65.88;97444.75;5065714;28;20649;-71
2022/01/16 08:48:12;;;;;;;36.17;20.47;;;;;;;1.53;65.28;97444.19;5071334;28;20284;-71
2022/01/16 08:50:39;;;;;;;32.30;19.37;;;;;;;1.73;64.72;97444.78;5071713;28;20253;-71
2022/01/16 08:53:05;;;;;;;35.93;21.13;;;;;;;1.74;64.67;97459.38;5071982;28;20412;-71
2022/01/16 08:55:32;;;;;;;34.40;20.40;;;;;;;1.65;65.06;97458.97;5073004;28;20190;-71
2022/01/16 08:57:59;;;;;;;32.70;19.83;;;;;;;1.75;65.14;97474.78;5073406;28;20202;-72
2022/01/16 09:00:25;;;;;;;35.83;21.77;;;;;;;1.49;66.37;97482.31;5072515;28;20457;-72
2022/01/16 09:02:50;;;;;;;37.90;22.10;;;;;;;2.03;65.31;97480.06;5068293;28;20416;-72
2022/01/16 09:05:16;;;;;;;34.40;20.50;;;;;;;2.35;63.97;97483.28;5077859;28;20512;-71
2022/01/16 09:07:42;;;;;;;34.90;21.40;;;;;;;2.51;63.29;97497.88;5084621;28;20262;-70
2022/01/16 09:10:08;;;;;;;29.87;18.10;;;;;;;2.66;62.87;97481.41;5083176;28;20163;-72
2022/01/16 09:12:35;;;;;;;31.77;19.57;;;;;;;2.37;62.69;97490.97;5068273;28;20205;-70
2022/01/16 09:15:05;;;;;;;30.10;18.20;;;;;;;2.52;63.01;97490.00;5081538;28;20420;-71
2022/01/16 09:17:30;;;;;;;29.40;17.90;;;;;;;2.53;62.54;97491.66;5085411;28;20429;-72
2022/01/16 09:19:56;;;;;;;28.60;18.00;;;;;;;2.28;63.46;97508.69;5084452;28;20567;-72
2022/01/16 09:22:22;;;;;;;29.80;18.27;;;;;;;2.50;63.29;97503.97;5073197;28;20186;-72
2022/01/16 09:24:47;;;;;;;28.30;17.97;;;;;;;2.50;62.70;97504.81;5084623;28;20640;-72
2022/01/16 09:27:13;;;;;;;29.93;18.10;;;;;;;2.81;62.16;97502.88;5067334;28;20267;-71
2022/01/16 09:29:38;;;;;;;30.80;17.60;;;;;;;2.95;61.14;97496.00;5067830;28;20530;-72
2022/01/16 09:32:05;;;;;;;28.80;18.33;;;;;;;3.00;61.22;97501.75;5075069;28;20170;-74
2022/01/16 09:34:31;;;;;;;26.40;17.30;;;;;;;2.94;61.57;97509.88;5068020;28;20641;-72
2022/01/16 09:36:56;;;;;;;30.57;16.70;;;;;;;3.02;61.62;97510.25;5067304;28;20507;-71
2022/01/16 09:39:22;;;;;;;28.80;16.80;;;;;;;3.38;60.22;97508.81;5070594;28;20206;-73
2022/01/16 09:41:47;;;;;;;30.80;19.37;;;;;;;3.50;60.65;97514.94;5075720;28;20178;-70
2022/01/16 09:44:15;;;;;;;26.87;18.17;;;;;;;3.32;60.98;97514.38;5057296;28;20175;-71
2022/01/16 09:46:40;;;;;;;29.03;17.60;;;;;;;3.28;60.63;97523.25;5065896;28;20210;-69
2022/01/16 09:49:06;;;;;;;29.43;17.30;;;;;;;3.29;61.48;97517.16;5067252;28;20420;-71
2022/01/16 09:51:32;;;;;;;29.90;18.17;;;;;;;3.50;60.93;97526.16;5070861;28;20261;-72
2022/01/16 09:53:58;;;;;;;29.37;18.80;;;;;;;3.73;60.77;97529.00;5068460;28;20595;-71
2022/01/16 09:56:24;;;;;;;29.63;18.60;;;;;;;4.17;60.19;97533.88;5075485;28;20727;-71
2022/01/16 09:58:50;;;;;;;31.07;19.30;;;;;;;4.24;59.27;97533.38;5072950;28;20847;-70
2022/01/16 10:01:16;;;;;;;29.00;19.23;;;;;;;4.53;58.19;97527.13;5072434;28;20425;-71
2022/01/16 10:03:44;;;;;;;33.93;19.80;;;;;;;4.60;58.09;97533.53;5068977;28;20763;-69
2022/01/16 10:06:13;;;;;;;34.13;19.90;;;;;;;3.97;59.60;97541.25;5072484;28;20637;-70
2022/01/16 10:08:39;;;;;;;32.93;20.40;;;;;;;3.67;60.80;97542.34;5059478;28;20432;-72
2022/01/16 10:11:26;;;;;;;34.37;20.90;;;;;;;4.04;60.59;97547.69;5064284;28;20736;-69
2022/01/16 10:13:58;;;;;;;34.60;20.23;;;;;;;4.01;60.68;97542.72;5070440;28;20437;-70
2022/01/16 10:16:26;;;;;;;30.83;19.70;;;;;;;4.34;59.64;97540.56;5043987;28;20892;-71
2022/01/16 10:18:51;;;;;;;35.57;21.00;;;;;;;3.69;61.70;97533.56;5074133;28;20451;-69
2022/01/16 10:21:31;;;;;;;36.63;21.00;;;;;;;3.97;61.37;97536.88;5074569;28;20454;-70
2022/01/16 10:23:57;;;;;;;33.60;20.27;;;;;;;3.93;61.83;97530.25;5071460;28;20265;-70
2022/01/16 10:26:23;;;;;;;31.80;21.57;;;;;;;4.35;60.37;97518.84;5074447;28;20440;-70
2022/01/16 10:28:50;;;;;;;35.47;21.53;;;;;;;4.49;60.05;97525.69;5073903;28;20186;-70
2022/01/16 10:31:25;;;;;;;31.57;20.33;;;;;;;4.15;61.70;97532.25;5072918;28;20421;-70
2022/01/16 10:33:54;;;;;;;37.07;22.43;;;;;;;4.05;61.89;97518.22;5072547;28;20809;-71
2022/01/16 10:36:37;;;;;;;36.53;21.53;;;;;;;4.03;61.75;97529.63;5068646;28;20441;-71
2022/01/16 10:39:05;;;;;;;34.43;21.27;;;;;;;4.57;60.92;97515.59;5069238;28;20424;-71
2022/01/16 10:41:30;;;;;;;34.93;20.77;;;;;;;4.96;60.33;97503.31;5073876;28;20782;-71
2022/01/16 10:43:56;;;;;;;34.60;22.27;;;;;;;4.57;60.35;97518.19;5073337;28;20431;-71
2022/01/16 10:46:25;;;;;;;34.37;21.90;;;;;;;4.93;59.67;97516.53;5068691;28;20222;-72
2022/01/16 10:49:11;;;;;;;35.57;22.73;;;;;;;4.71;59.93;97528.44;5067537;28;20659;-72
2022/01/16 10:51:37;;;;;;;39.10;23.20;;;;;;;4.21;61.64;97535.34;5042523;28;20497;-71
2022/01/16 10:54:29;;;;;;;36.30;22.00;;;;;;;4.38;61.99;97548.00;5072458;28;20428;-71
2022/01/16 10:56:54;;;;;;;38.70;23.13;;;;;;;4.37;61.92;97558.47;5073462;28;20424;-71
2022/01/16 10:59:24;;;;;;;34.33;21.27;;;;;;;4.60;61.70;97549.94;5065016;28;20744;-71
2022/01/16 11:02:08;;;;;;;37.93;22.83;;;;;;;4.70;60.59;97552.75;5073838;28;20178;-71
2022/01/16 11:04:34;;;;;;;36.93;21.50;;;;;;;3.98;63.72;97561.91;5072052;28;20427;-70
2022/01/16 11:07:04;;;;;;;32.90;22.43;;;;;;;3.75;64.14;97562.59;5064469;28;20441;-69
2022/01/16 11:09:31;;;;;;;38.23;23.40;;;;;;;4.30;63.30;97563.25;5073146;28;20189;-70
2022/01/16 11:11:59;;;;;;;34.87;21.80;;;;;;;4.03;63.87;97551.25;5072951;28;20448;-69
2022/01/16 11:14:29;;;;;;;37.10;21.60;;;;;;;4.44;62.17;97557.97;5072624;28;20424;-71
2022/01/16 11:16:55;;;;;;;37.73;22.57;;;;;;;4.38;62.55;97565.34;5072286;28;20444;-69
2022/01/16 11:19:24;;;;;;;32.50;20.23;;;;;;;4.26;62.98;97567.00;5038484;28;20467;-70
2022/01/16 11:21:56;;;;;;;33.77;20.43;;;;;;;4.82;62.44;97555.41;5066675;28;20544;-70
2022/01/16 11:27:06;;;;;;;33.73;20.60;;;;;;;5.01;62.15;97563.59;5072109;28;20437;-71
2022/01/16 11:29:32;;;;;;;36.63;21.20;;;;;;;4.72;62.42;97563.03;5073054;28;20938;-72
2022/01/16 11:31:59;;;;;;;37.77;21.97;;;;;;;4.96;62.66;97567.44;5070282;28;20251;-70
2022/01/16 11:34:27;;;;;;;42.83;24.27;;;;;;;4.95;63.41;97563.19;5072658;28;20416;-70
2022/01/16 11:36:53;;;;;;;42.40;25.00;;;;;;;4.83;62.87;97570.06;5064038;28;20437;-70
2022/01/16 11:39:19;;;;;;;38.60;23.03;;;;;;;4.72;63.22;97569.03;5087871;28;20519;-72
2022/01/16 11:41:52;;;;;;;39.87;22.83;;;;;;;4.82;62.92;97568.41;5072831;28;20473;-70
2022/01/16 11:44:28;;;;;;;44.93;23.23;;;;;;;4.42;64.07;97574.59;5069666;28;20185;-68
2022/01/16 11:46:55;;;;;;;34.70;21.60;;;;;;;4.35;64.56;97586.34;5072775;28;20459;-69
2022/01/16 11:49:38;;;;;;;38.40;23.10;;;;;;;4.53;63.73;97579.06;5071368;28;20966;-69
2022/01/16 11:52:09;;;;;;;35.90;22.60;;;;;;;4.78;62.69;97579.97;5071991;28;20504;-70
2022/01/16 11:54:45;;;;;;;39.33;23.60;;;;;;;4.46;63.68;97584.66;5073120;28;20425;-70
2022/01/16 11:57:18;;;;;;;42.33;23.17;;;;;;;4.85;63.42;97574.19;5064367;28;20437;-69
2022/01/16 11:59:43;;;;;;;45.00;24.47;;;;;;;4.78;64.03;97575.59;5071827;28;20453;-71
2022/01/16 12:02:09;;;;;;;41.53;23.30;;;;;;;4.70;63.84;97576.09;5063199;28;20536;-71
2022/01/16 12:04:34;;;;;;;47.33;26.97;;;;;;;4.53;64.55;97587.66;5072809;28;20182;-70
2022/01/16 12:07:12;;;;;;;40.00;23.93;;;;;;;4.62;64.85;97594.00;5063629;28;20205;-72
2022/01/16 12:09:48;;;;;;;41.63;23.97;;;;;;;4.01;65.94;97589.41;5064131;28;20174;-69
2022/01/16 12:12:13;;;;;;;36.10;22.90;;;;;;;4.19;65.30;97596.88;5071799;28;20477;-70
2022/01/16 12:14:47;;;;;;;38.63;22.80;;;;;;;3.73;67.10;97611.97;5071839;28;20463;-72
2022/01/16 12:17:28;;;;;;;38.33;22.63;;;;;;;3.95;66.29;97606.22;5062825;28;20206;-70
2022/01/16 12:19:55;;;;;;;43.43;24.23;;;;;;;3.73;67.55;97606.78;5070825;28;20463;-70